Latest Weather Observations for Albury

IDN60801

Issued at 3:12 pm EST Monday 27 May 2019 (issued every 10 minutes, with the page automatically refreshed every 10 minutes)

About weather observations | Map of weather stations | Latest weather observations for NSW | Other Formats
Station Details ID: 072160 Name: ALBURY AIRPORT AWS Lat: -36.07 Lon: 146.95 Height: 163.5 m
Data from the previous 72 hours. | See also: Recent months at Albury
Date/Time
EST
Temp
°C
App
Temp
°C
Dew
Point
°C
Rel
Hum
%
Delta-T
°C
Wind Press
QNH
hPa
Press
MSL
hPa
Rain since
9am
mm
Dir  Spd
km/h
Gust
km/h
Spd
kts
Gust
kts
27/03:00pm 10.7 - - - - W 28 37 15 20 1011.7 1011.7 0.0
27/02:30pm 10.0 - - - - W 24 33 13 18 1011.6 1011.6 0.0
27/02:00pm 10.4 - - - - W 19 30 10 16 1011.0 1011.0 0.0
27/01:30pm 9.7 - - - - W 30 43 16 23 1010.7 1010.7 0.0
27/01:00pm 9.5 - - - - W 30 54 16 29 1011.0 1011.0 0.0
27/12:38pm 9.9 - - - - W 28 48 15 26 1010.9 1010.9 0.0
27/12:30pm 9.7 - - - - W 26 32 14 17 1010.7 1010.7 0.0
27/12:00pm 10.1 - - - - W 30 43 16 23 1010.5 1010.5 0.0
27/11:30am 9.8 - - - - W 28 39 15 21 1011.1 1011.1 0.0
27/11:00am 9.1 - - - - W 30 43 16 23 1011.0 1011.0 0.0
27/10:31am 9.2 - - - - W 30 50 16 27 1010.9 1010.9 0.0
27/10:30am 9.0 - - - - W 28 43 15 23 1011.0 1011.0 0.0
27/10:18am 8.7 - - - - W 30 39 16 21 1010.9 1010.9 0.0
27/10:02am 9.2 - - - - W 24 33 13 18 1011.0 1011.0 0.0
27/10:00am 9.0 - - - - W 24 33 13 18 1011.0 1011.0 0.0
27/09:30am 8.3 - - - - W 30 43 16 23 1010.5 1010.5 0.0
27/09:00am 7.0 - - - - WNW 24 35 13 19 1010.3 1010.3 10.0
27/08:30am 7.2 - - - - W 17 24 9 13 1010.2 1010.2 10.0
27/08:00am 6.5 - - - - W 17 24 9 13 1009.9 1009.9 10.0
27/07:32am 7.2 - - - - WNW 28 46 15 25 1009.1 1009.2 9.8
27/07:30am 7.6 - - - - WNW 24 43 13 23 1009.1 1009.2 9.8
27/07:07am 7.8 - - - - WNW 28 37 15 20 1008.7 1008.8 9.6
27/07:00am 7.7 - - - - WNW 24 35 13 19 1008.7 1008.8 9.6
27/06:30am 7.4 - - - - WNW 11 17 6 9 1008.9 1009.0 9.6
27/06:25am 7.3 - - - - WNW 9 15 5 8 1008.8 1008.9 9.6
27/06:00am 6.8 - - - - W 2 6 1 3 1008.8 1008.9 9.4
27/05:30am 7.0 - - - - NW 11 17 6 9 1008.2 1008.3 9.4
27/05:00am 6.6 - - - - W 19 24 10 13 1009.0 1009.1 9.2
27/04:52am 6.5 - - - - W 24 41 13 22 1009.4 1009.4 9.0
27/04:31am 7.3 - - - - WSW 30 54 16 29 1009.8 1009.8 8.0
27/04:30am 7.3 - - - - WSW 28 39 15 21 1009.9 1009.9 8.0
27/04:19am 7.6 - - - - W 28 39 15 21 1009.5 1009.5 6.8
27/04:02am 7.7 - - - - W 24 35 13 19 1008.8 1008.9 5.8
27/04:00am 7.7 - - - - W 24 35 13 19 1008.7 1008.8 5.8
27/03:43am 8.2 - - - - WNW 30 46 16 25 1008.6 1008.7 4.4
27/03:37am 9.5 - - - - NW 24 35 13 19 1007.7 1007.8 3.6
27/03:35am 9.5 - - - - NNW 24 32 13 17 1007.6 1007.7 3.4
27/03:30am 9.5 - - - - NNW 26 35 14 19 1007.6 1007.7 3.4
27/03:23am 9.4 - - - - NNW 26 35 14 19 1007.7 1007.8 3.2
27/03:11am 9.6 - - - - NNW 24 37 13 20 1007.9 1008.0 2.2
27/03:00am 9.7 - - - - NNW 24 37 13 20 1008.1 1008.2 1.6
27/02:59am 9.7 - - - - NNW 24 37 13 20 1008.1 1008.2 1.6
27/02:30am 10.9 - - - - N 24 41 13 22 1008.3 1008.4 0.2
27/02:00am 10.9 - - - - N 22 32 12 17 1009.2 1009.3 0.2
27/01:30am 10.8 - - - - NNW 22 30 12 16 1010.4 1010.4 0.2
27/01:00am 10.6 - - - - NNW 28 41 15 22 1011.0 1011.0 0.2
27/12:30am 11.2 - - - - N 20 30 11 16 1011.1 1011.1 0.0
27/12:00am 11.4 - - - - N 17 24 9 13 1011.7 1011.7 0.0
 
Date/Time
EST
Temp
°C
App
Temp
°C
Dew
Point
°C
Rel
Hum
%
Delta-T
°C
Wind Press
QNH
hPa
Press
MSL
hPa
Rain since
9am
mm
Dir  Spd
km/h
Gust
km/h
Spd
kts
Gust
kts
26/11:30pm 11.5 - - - - N 15 22 8 12 1012.3 1012.4 0.0
26/11:00pm 11.4 - - - - N 9 15 5 8 1012.9 1013.0 0.0
26/10:30pm 11.8 - - - - N 15 22 8 12 1013.3 1013.4 0.0
26/10:00pm 11.8 - - - - N 9 15 5 8 1014.0 1014.1 0.0
26/09:30pm 11.7 - - - - N 11 17 6 9 1014.1 1014.2 0.0
26/09:00pm 11.8 - - - - N 13 17 7 9 1014.5 1014.6 0.0
26/08:30pm 11.7 - - - - N 9 13 5 7 1014.6 1014.7 0.0
26/08:00pm 11.3 - - - - N 9 13 5 7 1014.8 1014.9 0.0
26/07:30pm 11.0 - - - - N 6 7 3 4 1015.0 1015.1 0.0
26/07:00pm 11.2 - - - - N 7 9 4 5 1015.1 1015.2 0.0
26/06:30pm 11.0 - - - - N 7 9 4 5 1014.9 1015.0 0.0
26/06:00pm 11.3 - - - - NNW 6 7 3 4 1015.0 1015.1 0.0
26/05:30pm 11.4 - - - - NW 7 9 4 5 1014.9 1015.0 0.0
26/05:00pm 11.5 - - - - NW 9 13 5 7 1014.7 1014.8 0.0
26/04:30pm 12.3 - - - - WNW 11 15 6 8 1014.6 1014.7 0.0
26/04:00pm 13.5 - - - - NW 17 24 9 13 1014.6 1014.7 0.0
26/03:30pm 13.4 - - - - WNW 11 15 6 8 1014.8 1014.9 0.0
26/03:00pm 13.8 - - - - W 15 20 8 11 1014.8 1014.9 0.0
26/02:30pm 13.7 - - - - W 15 26 8 14 1014.9 1015.0 0.0
26/02:00pm 13.4 - - - - W 20 28 11 15 1015.2 1015.3 0.0
26/01:30pm 12.7 - - - - WNW 19 28 10 15 1015.4 1015.5 0.0
26/01:00pm 13.3 - - - - WNW 17 24 9 13 1015.8 1015.8 0.0
26/12:30pm 13.3 - - - - WNW 19 24 10 13 1016.1 1016.1 0.0
26/12:00pm 13.2 - - - - NW 20 24 11 13 1016.3 1016.3 0.0
26/11:30am 12.9 - - - - NW 20 24 11 13 1016.8 1016.8 0.0
26/11:00am 12.6 - - - - NW 19 24 10 13 1017.1 1017.1 0.0
26/10:30am 11.7 - - - - NW 17 24 9 13 1017.4 1017.5 0.0
26/10:00am 11.6 - - - - WNW 15 22 8 12 1017.4 1017.5 0.0
26/09:30am 11.4 - - - - WNW 17 24 9 13 1017.2 1017.3 0.0
26/09:00am 11.2 - - - - WNW 19 26 10 14 1016.9 1016.9 0.6
26/08:30am 10.7 - - - - W 17 20 9 11 1016.5 1016.5 0.6
26/08:00am 10.0 - - - - NW 9 13 5 7 1016.3 1016.3 0.6
26/07:30am 8.9 - - - - NW 11 13 6 7 1016.2 1016.2 0.6
26/07:00am 9.5 - - - - WNW 11 15 6 8 1015.9 1015.9 0.6
26/06:30am 9.8 - - - - WNW 13 19 7 10 1015.3 1015.4 0.6
26/06:00am 10.7 - - - - W 17 24 9 13 1015.1 1015.2 0.6
26/05:30am 11.0 - - - - WNW 22 28 12 15 1014.9 1015.0 0.6
26/05:00am 11.4 - - - - WNW 17 24 9 13 1014.7 1014.8 0.6
26/04:36am 11.4 - - - - W 17 28 9 15 1014.7 1014.8 0.6
26/04:30am 11.6 - - - - W 19 28 10 15 1014.7 1014.8 0.6
26/04:13am 11.6 - - - - WNW 15 19 8 10 1014.5 1014.6 0.6
26/04:00am 11.6 - - - - W 17 28 9 15 1014.2 1014.3 0.6
26/03:53am 11.7 - - - - WNW 17 28 9 15 1014.2 1014.3 0.6
26/03:30am 12.1 - - - - WNW 17 28 9 15 1014.3 1014.4 0.6
26/03:21am 11.8 - - - - WNW 13 17 7 9 1014.2 1014.3 0.6
26/03:00am 11.8 - - - - WNW 13 20 7 11 1014.4 1014.5 0.6
26/02:30am 11.8 - - - - WNW 11 15 6 8 1014.0 1014.1 0.6
26/02:00am 12.9 - - - - W 17 24 9 13 1014.2 1014.3 0.4
26/01:30am 13.3 - - - - W 9 15 5 8 1013.9 1014.0 0.4
26/01:00am 13.6 - - - - WSW 15 22 8 12 1014.0 1014.1 0.4
26/12:30am 13.9 - - - - WSW 22 41 12 22 1013.9 1014.0 0.4
26/12:00am 14.3 - - - - W 24 32 13 17 1013.7 1013.8 0.4
 
Date/Time
EST
Temp
°C
App
Temp
°C
Dew
Point
°C
Rel
Hum
%
Delta-T
°C
Wind Press
QNH
hPa
Press
MSL
hPa
Rain since
9am
mm
Dir  Spd
km/h
Gust
km/h
Spd
kts
Gust
kts
25/11:38pm 15.0 - - - - W 15 46 8 25 1013.4 1013.5 0.4
25/11:30pm 13.0 - - - - CALM 0 6 0 3 1013.3 1013.4 0.4
25/11:00pm 13.1 - - - - NE 2 6 1 3 1013.0 1013.1 0.4
25/10:30pm 13.3 - - - - SSW 6 7 3 4 1013.0 1013.1 0.4
25/10:00pm 15.0 - - - - NNW 7 9 4 5 1013.3 1013.4 0.4
25/09:30pm 14.8 - - - - N 7 9 4 5 1013.5 1013.6 0.4
25/09:00pm 15.7 - - - - N 7 11 4 6 1013.6 1013.7 0.2
25/08:30pm 16.1 - - - - NNW 9 11 5 6 1013.6 1013.7 0.0
25/08:00pm 16.0 - - - - N 11 15 6 8 1013.7 1013.8 0.0
25/07:30pm 15.4 - - - - N 9 11 5 6 1013.6 1013.7 0.0
25/07:00pm 14.9 - - - - N 9 11 5 6 1013.7 1013.8 0.0
25/06:30pm 15.6 - - - - NNW 6 7 3 4 1013.5 1013.6 0.0
25/06:00pm 16.8 - - - - NW 9 13 5 7 1013.4 1013.5 0.0
25/05:30pm 16.8 - - - - NW 11 15 6 8 1013.2 1013.3 0.0
25/05:00pm 17.4 - - - - WNW 7 13 4 7 1013.2 1013.3 0.0
25/04:30pm 18.5 - - - - WNW 11 17 6 9 1013.4 1013.5 0.0
25/04:00pm 19.4 - - - - NW 11 17 6 9 1013.3 1013.4 0.0
25/03:30pm 19.6 - - - - WNW 13 20 7 11 1013.4 1013.5 0.0
25/03:00pm 20.1 - - - - NNW 20 28 11 15 1013.5 1013.6 0.0
25/02:30pm 20.0 - - - - S 6 9 3 5 1013.7 1013.8 0.0
25/02:00pm 19.2 - - - - WSW 11 15 6 8 1014.1 1014.2 0.0
25/01:30pm 19.9 - - - - NNW 19 28 10 15 1014.2 1014.3 0.0
25/01:00pm 20.0 - - - - N 13 19 7 10 1014.7 1014.8 0.0
25/12:30pm 18.7 - - - - N 13 20 7 11 1015.3 1015.4 0.0
25/12:00pm 18.0 - - - - N 11 19 6 10 1015.9 1015.9 0.0
25/11:30am 18.4 - - - - WNW 7 17 4 9 1016.6 1016.6 0.0
25/11:00am 16.4 - - - - S 9 13 5 7 1017.0 1017.0 0.0
25/10:30am 14.3 - - - - SSE 4 9 2 5 1017.2 1017.3 0.0
25/10:00am 13.2 - - - - S 6 9 3 5 1017.4 1017.5 0.0
25/09:30am 12.8 - - - - CALM 0 0 0 0 1017.7 1017.8 0.0
25/09:00am 12.2 - - - - CALM 0 0 0 0 1018.0 1018.1 0.4
25/08:30am 11.7 - - - - E 6 7 3 4 1018.2 1018.3 0.4
25/08:00am 11.2 - - - - ESE 6 7 3 4 1018.2 1018.3 0.4
25/07:30am 10.9 - - - - E 6 9 3 5 1018.3 1018.4 0.4
25/07:00am 10.7 - - - - CALM 0 0 0 0 1018.3 1018.4 0.4
25/06:30am 11.1 - - - - CALM 0 0 0 0 1018.2 1018.3 0.2
25/06:00am 11.1 - - - - N 7 9 4 5 1018.3 1018.4 0.2
25/05:30am 11.0 - - - - NNW 7 9 4 5 1018.4 1018.5 0.2
25/05:00am 10.9 - - - - NE 6 7 3 4 1018.3 1018.4 0.2
25/04:30am 10.5 - - - - CALM 0 7 0 4 1018.2 1018.3 0.2
25/04:00am 10.7 - - - - NE 6 7 3 4 1017.9 1018.0 0.2
25/03:30am 10.6 - - - - CALM 0 0 0 0 1018.2 1018.3 0.2
25/03:00am 11.0 - - - - CALM 0 0 0 0 1018.4 1018.5 0.2
25/02:30am 10.9 - - - - CALM 0 0 0 0 1018.7 1018.8 0.2
25/02:00am 10.8 - - - - CALM 0 0 0 0 1018.9 1019.0 0.2
25/01:30am 10.8 - - - - CALM 0 0 0 0 1019.3 1019.4 0.2
25/01:00am 11.3 - - - - CALM 0 0 0 0 1019.6 1019.7 0.2
25/12:30am 11.5 - - - - ENE 7 11 4 6 1019.9 1020.0 0.2
25/12:00am 11.9 - - - - SW 17 32 9 17 1020.6 1020.7 0.2
 
Date/Time
EST
Temp
°C
App
Temp
°C
Dew
Point
°C
Rel
Hum
%
Delta-T
°C
Wind Press
QNH
hPa
Press
MSL
hPa
Rain since
9am
mm
Dir  Spd
km/h
Gust
km/h
Spd
kts
Gust
kts
24/11:30pm 11.1 - - - - ENE 6 7 3 4 1019.6 1019.7 0.2
24/11:00pm 11.2 - - - - SE 6 7 3 4 1020.1 1020.2 0.2
24/10:30pm 11.0 - - - - NE 7 9 4 5 1020.1 1020.2 0.2
24/10:00pm 11.6 - - - - NNE 6 7 3 4 1020.2 1020.3 0.2
24/09:30pm 11.3 - - - - ENE 6 9 3 5 1020.7 1020.8 0.2
24/09:00pm 10.1 - - - - S 7 9 4 5 1021.2 1021.3 0.2
24/08:30pm 10.4 - - - - CALM 0 0 0 0 1020.8 1020.9 0.2
24/08:00pm 10.8 - - - - W 6 9 3 5 1020.9 1021.0 0.2
24/07:30pm 11.5 - - - - NE 7 9 4 5 1020.7 1020.8 0.2
24/07:00pm 12.5 - - - - ESE 6 6 3 3 1021.0 1021.1 0.2
24/06:30pm 12.5 - - - - E 2 6 1 3 1021.0 1021.1 0.2
24/06:00pm 13.6 - - - - ESE 6 9 3 5 1021.1 1021.2 0.2
24/05:30pm 13.9 - - - - E 11 17 6 9 1020.5 1020.6 0.2
24/05:00pm 14.3 - - - - E 15 22 8 12 1020.6 1020.7 0.2
24/04:30pm 14.3 - - - - ENE 17 20 9 11 1020.8 1020.9 0.2
24/04:00pm 15.2 - - - - E 13 17 7 9 1021.0 1021.1 0.2
24/03:30pm 15.3 - - - - E 11 15 6 8 1021.0 1021.1 0.2

Other formats

Comma delimited format used in spreadsheet applications
http://www.bom.gov.au/fwo/IDN60801/IDN60801.95896.axf

JavaScript Object Notation format (JSON) in row-major order
http://www.bom.gov.au/fwo/IDN60801/IDN60801.95896.json

Data quality

Most of these data are generated automatically and are frequently updated. Quality checks on data are not normally performed. It is possible for incorrect values to appear. Refer to information at About Latest Weather Observations and please check the disclaimer before using these data.